Nesconset, New York
Current Conditions -  °F | °C
As of 5:56 PM on Tuesday 27 Jan 2015 (Local Time) from KISP Reporting Station
Overcast Overcast  
Wind Chill:   Ceiling: 11000
Heat Index: 23°   Visibility: 8mi
Dew Point: 12°   Wind: 20mph
Humidity: 63%   Direction: 340°NNW
Pressure: 29.64"   Gusts: 33mph
Location:  40.84°N, 73.14°W
Report Text: KISP 272256Z 34017G29KT 8SM FEW002 SCT065 OVC110 M05/M11 A2964 RMK AO2 PK WND 33032/2206 SLP038 T10501111 $
Loading
Personal Weather Stations






























Interactive Weather Map New forecast layout! Learn more

10-Day Weather Forecast

Advertisements
Track Severe Weather on mobile